Aeroporto :
LOGIN :

Iscrizione | Disclaimer

   EN    FR    IT 

 










Sommario :    VFR   VFR Marginale   IFR   IFR Intensivo   IFR Molto Intensivo
Visibilità : 
Base nubi : 
>= 8 km
>= 3000ft
5 / 8 km
1000 / 3000 ft
1500m / 5 km
500 / 1000 ft
800 / 1500m
200 / 500 ft
< 800m
< 200 ft
Simboli :   Temporali  Nebbia  Neve Forte  Precipitazioni Forti  Vento > 20 kt
SIGMETs :   Varie  Temporali  Ghiacco  Turbolenza  Onda orograficha  Ceneri Vulcaniche






- Altitudine del aeroporto : 219 ft
- Codice IATA : DNR


LFRD - Dinard

ULTIMO METAR :
  • 090530Z AUTO 33003KT 1000 0350 R35L/0650U BCFG NSC 08/08 Q1022

METARs OBSOLETI :
  • 090500Z AUTO 34002KT 4300 BR NSC 08/08 Q1021
  • 090430Z AUTO VRB02KT 3800 BR NSC 08/08 Q1021
  • 090400Z AUTO 26001KT 5000 BR NSC 09/08 Q1021
  • 090330Z AUTO 28003KT 5000 BR NSC 08/08 Q1022
  • 090300Z AUTO 23002KT 4300 BR NSC 08/08 Q1022
  • 090230Z AUTO 21003KT 5000 BR NSC 09/09 Q1022

Previsioni scadute.
ATIS : +33 2 99 16 81 50



MetMap, La meteo Aeronautica in un colpo d'occhio ! - Copyright ORBIFLY Dicembre 2007 - Disclaimer

ORBIFLY MET'MAP TEAM :

Programmazione e sviluppo : Alexandra Zaïnal
Concezione : Baudouin d'Aumeries
Aiuto per la programmazione : Marc-Olivier Méhu
Supporto tecnico e logistico : Manuel Goepfert
Aiuto per la traduzione : Arnaldo La Scala

Contatto : metmap@orbifly.com




FONTI E CREDITI :

   NOAA